CYDC

Princeton Airport

Town of Princeton, British Columbia, Canada
METAR CYDC 230100Z VRB02KT 25SM FEW048 FEW130 M08/M15 A3028 RMK SC1AC1 SC TR AC TR LAST STFD OB/NEXT 23 1500UTC SLP305
Observed Flight Rules
Feb-23 @ 01:00 UTC (10 hours ago) Visual Flight Rules
Wind Visibility Clouds
Variable at 2 knots 25 miles
  • Few at 4,800' AGL
  • Few at 13,000' AGL
Temperatures Readings
Current -8°C / 18°F
Dewpoint -15°C / 5°F
Humidity 58%
Altimeter 30.28" Hg
Pressure 1030.5 hPa
Elevation 700
METAR CYDC 230100Z VRB02KT 25SM FEW048 FEW130 M08/M15 A3028 RMK SC1AC1 SC TR AC TR LAST STFD OB/NEXT 23 1500UTC SLP305
Observed Flight Rules
Feb-23 @ 01:00 UTC
(10 hours ago)
VFR
Wind Visibility
Variable at 2 knots 25 miles
Clouds
  • Few at 4,800' AGL
  • Few at 13,000' AGL
Temperature Dewpoint
-8°C / 18°F -15°C / 5°F
Humidity Altimeter Pressure
58% 30.28" Hg 1030.5 hPa